Time;durP1;ratioP1;P1;durP2;ratioP2;P2;SDS_P1;SDS_P2;PMS_P1;PMS_P2;Temp;Humidity;BMP_temperature;BMP_pressure;BME280_temperature;BME280_humidity;BME280_pressure;Samples;Min_cycle;Max_cycle;Signal;HPM_P1;HPM_P2
2022/07/21 00:00:26;;;;;;;3.30;3.00;;;26.90;96.30;;;;;;5070314;28;20208;-71
2022/07/21 00:02:53;;;;;;;2.85;2.47;;;26.80;96.50;;;;;;5071885;28;20218;-70
2022/07/21 00:05:21;;;;;;;2.85;2.65;;;26.80;96.50;;;;;;5076198;28;20247;-71
2022/07/21 00:07:50;;;;;;;2.53;2.40;;;26.80;96.60;;;;;;5070792;28;20267;-70
2022/07/21 00:10:17;;;;;;;2.80;2.50;;;26.80;96.70;;;;;;5078879;28;20242;-71
2022/07/21 00:12:44;;;;;;;3.00;2.80;;;26.90;96.70;;;;;;5070668;28;20210;-71
2022/07/21 00:15:12;;;;;;;2.70;2.50;;;26.90;96.60;;;;;;5072869;28;20239;-71
2022/07/21 00:17:40;;;;;;;2.78;2.58;;;26.90;96.70;;;;;;5076330;28;20868;-72
2022/07/21 00:20:09;;;;;;;2.42;2.22;;;26.90;96.80;;;;;;5077711;28;20198;-70
2022/07/21 00:22:36;;;;;;;3.13;2.90;;;26.80;96.80;;;;;;5075477;28;20225;-71
2022/07/21 00:25:05;;;;;;;3.30;2.90;;;26.80;96.90;;;;;;5084832;28;20218;-71
2022/07/21 00:27:33;;;;;;;2.58;2.38;;;26.80;96.90;;;;;;5078318;28;20221;-71
2022/07/21 00:30:00;;;;;;;2.55;2.35;;;26.80;96.90;;;;;;5072335;28;20221;-71
2022/07/21 00:32:27;;;;;;;2.75;2.55;;;26.90;96.90;;;;;;5076223;28;20229;-71
2022/07/21 00:34:54;;;;;;;3.30;2.65;;;26.90;97.00;;;;;;5073094;28;20193;-67
2022/07/21 00:37:23;;;;;;;3.03;2.83;;;26.90;97.00;;;;;;5079206;28;20221;-71
2022/07/21 00:39:51;;;;;;;2.75;2.55;;;26.90;97.00;;;;;;5079251;28;20245;-72
2022/07/21 00:42:24;;;;;;;3.10;2.78;;;26.80;97.10;;;;;;5076147;28;20217;-71
2022/07/21 00:44:52;;;;;;;4.07;2.60;;;26.90;97.30;;;;;;5082477;28;20720;-72
2022/07/21 00:47:20;;;;;;;3.92;2.90;;;26.80;97.30;;;;;;5076521;28;20209;-71
2022/07/21 00:49:48;;;;;;;2.90;2.70;;;26.70;97.20;;;;;;5074112;28;20221;-71
2022/07/21 00:52:15;;;;;;;2.92;2.72;;;26.60;97.30;;;;;;5079628;28;20703;-72
2022/07/21 00:54:43;;;;;;;2.78;2.58;;;26.50;97.50;;;;;;5077013;28;20198;-71
2022/07/21 00:57:10;;;;;;;2.80;2.60;;;26.60;97.60;;;;;;5077537;28;20218;-72
2022/07/21 00:59:39;;;;;;;3.25;2.67;;;26.60;97.60;;;;;;5075330;28;20228;-70
2022/07/21 01:02:06;;;;;;;2.88;2.67;;;26.60;97.60;;;;;;5081046;28;20217;-71
2022/07/21 01:04:34;;;;;;;2.70;2.50;;;26.50;97.50;;;;;;5073601;28;20267;-71
2022/07/21 01:07:02;;;;;;;2.70;2.50;;;26.60;97.70;;;;;;5079449;28;20205;-73
2022/07/21 01:09:29;;;;;;;3.00;2.80;;;26.50;97.70;;;;;;5077760;28;20221;-71
2022/07/21 01:11:57;;;;;;;3.30;3.08;;;26.50;97.70;;;;;;5078226;28;20198;-71
2022/07/21 01:14:25;;;;;;;2.70;2.50;;;26.40;97.80;;;;;;5078229;28;20217;-71
2022/07/21 01:16:53;;;;;;;3.92;2.72;;;26.40;97.80;;;;;;5080490;28;20216;-71
2022/07/21 01:19:21;;;;;;;5.68;3.30;;;26.40;98.00;;;;;;5079330;28;20286;-72
2022/07/21 01:21:50;;;;;;;2.83;2.63;;;26.40;97.90;;;;;;5079441;28;20206;-71
2022/07/21 01:24:17;;;;;;;3.30;3.00;;;26.40;98.00;;;;;;5080183;28;20652;-71
2022/07/21 01:26:46;;;;;;;3.10;2.88;;;26.40;98.00;;;;;;5075788;28;20193;-72
2022/07/21 01:29:14;;;;;;;3.00;2.80;;;26.40;98.00;;;;;;5074798;28;20236;-72
2022/07/21 01:31:44;;;;;;;3.55;2.80;;;26.40;98.10;;;;;;5078659;28;20254;-72
2022/07/21 01:34:12;;;;;;;2.72;2.53;;;26.40;98.10;;;;;;5075511;28;20206;-72
2022/07/21 01:36:39;;;;;;;3.00;2.80;;;26.40;98.10;;;;;;5078941;28;20193;-71
2022/07/21 01:41:53;;;;;;;3.30;3.00;;;26.40;98.30;;;;;;5078129;28;20205;-71
2022/07/21 01:44:20;;;;;;;3.15;2.88;;;26.40;98.40;;;;;;5077069;28;20226;-70
2022/07/21 01:46:48;;;;;;;3.30;3.00;;;26.30;98.50;;;;;;5081693;28;20204;-72
2022/07/21 01:49:18;;;;;;;3.30;3.00;;;26.20;98.60;;;;;;5077524;28;20226;-71
2022/07/21 01:51:45;;;;;;;3.30;2.80;;;26.20;98.70;;;;;;5080722;28;20675;-71
2022/07/21 01:54:14;;;;;;;3.50;3.20;;;26.20;98.80;;;;;;5078255;28;20248;-71
2022/07/21 01:56:41;;;;;;;5.00;3.03;;;26.20;98.80;;;;;;5082516;28;20198;-71
2022/07/21 01:59:09;;;;;;;2.75;2.55;;;26.20;98.90;;;;;;5080055;28;20221;-70
2022/07/21 02:01:36;;;;;;;3.38;2.92;;;26.20;98.90;;;;;;5071570;28;20251;-71
2022/07/21 02:04:05;;;;;;;3.50;3.20;;;26.20;99.00;;;;;;5072754;28;20213;-71
2022/07/21 02:06:33;;;;;;;3.15;2.92;;;26.20;99.10;;;;;;5077728;28;20577;-71
2022/07/21 02:09:01;;;;;;;3.13;2.83;;;26.20;99.10;;;;;;5078421;28;20309;-71
2022/07/21 02:11:29;;;;;;;3.92;3.28;;;26.20;99.20;;;;;;5081675;28;20198;-71
2022/07/21 02:13:57;;;;;;;2.80;2.60;;;26.20;99.30;;;;;;5080577;28;20224;-71
2022/07/21 02:16:24;;;;;;;4.45;3.25;;;26.10;99.30;;;;;;5069415;28;20209;-71
2022/07/21 02:18:51;;;;;;;3.55;3.20;;;26.10;99.30;;;;;;5076796;28;20282;-71
2022/07/21 02:21:18;;;;;;;3.42;3.13;;;26.10;99.40;;;;;;5073944;28;20201;-71
2022/07/21 02:23:45;;;;;;;3.45;3.15;;;26.10;99.50;;;;;;5080649;28;20218;-70
2022/07/21 02:26:13;;;;;;;3.10;2.80;;;26.10;99.50;;;;;;5079844;28;20193;-71
2022/07/21 02:28:41;;;;;;;3.03;2.75;;;26.00;99.50;;;;;;5072518;28;20230;-72
2022/07/21 02:31:08;;;;;;;3.30;3.00;;;26.00;99.60;;;;;;5074116;28;20216;-72
2022/07/21 02:33:36;;;;;;;3.40;3.10;;;26.00;99.60;;;;;;5073735;28;20229;-71
2022/07/21 02:36:03;;;;;;;3.53;3.22;;;26.00;99.70;;;;;;5080681;28;20221;-71
2022/07/21 02:38:30;;;;;;;3.20;3.00;;;25.90;99.70;;;;;;5076628;28;20230;-71
2022/07/21 02:40:57;;;;;;;3.50;3.20;;;25.90;99.80;;;;;;5074630;28;20198;-72
2022/07/21 02:43:24;;;;;;;3.38;3.08;;;25.80;99.90;;;;;;5077056;28;20685;-71
2022/07/21 02:45:53;;;;;;;3.05;2.83;;;25.80;99.90;;;;;;5074383;28;20733;-71
2022/07/21 02:48:20;;;;;;;3.28;3.08;;;25.70;99.90;;;;;;5073653;28;20217;-70
2022/07/21 02:50:47;;;;;;;3.08;2.88;;;25.70;99.90;;;;;;5075204;28;20190;-71
2022/07/21 02:53:17;;;;;;;3.20;2.95;;;25.70;99.90;;;;;;5073532;28;20275;-71
2022/07/21 02:55:45;;;;;;;3.67;3.33;;;25.70;99.90;;;;;;5077987;28;20223;-71
2022/07/21 02:58:14;;;;;;;3.70;3.40;;;25.70;99.90;;;;;;5072175;28;20306;-72
2022/07/21 03:00:44;;;;;;;3.65;3.35;;;25.60;99.90;;;;;;5073509;28;20194;-71
2022/07/21 03:03:13;;;;;;;3.35;3.05;;;25.60;99.90;;;;;;5074565;28;20570;-70
2022/07/21 03:05:40;;;;;;;3.33;3.13;;;25.70;99.90;;;;;;5070161;28;20244;-71
2022/07/21 03:08:08;;;;;;;3.47;3.13;;;25.60;99.90;;;;;;5076840;28;20213;-71
2022/07/21 03:10:36;;;;;;;3.45;3.15;;;25.60;99.90;;;;;;5077693;28;20235;-70
2022/07/21 03:13:03;;;;;;;4.38;3.30;;;25.60;99.90;;;;;;5076933;28;20218;-71
2022/07/21 03:15:31;;;;;;;3.53;3.22;;;25.60;99.90;;;;;;5080549;28;20284;-71
2022/07/21 03:17:58;;;;;;;3.70;3.40;;;25.60;99.90;;;;;;5079097;28;20217;-71
2022/07/21 03:20:28;;;;;;;3.40;2.97;;;25.60;99.90;;;;;;5078097;28;20202;-71
2022/07/21 03:22:55;;;;;;;3.63;3.33;;;25.50;99.90;;;;;;5076120;28;20229;-72
2022/07/21 03:25:23;;;;;;;3.85;3.55;;;25.50;99.90;;;;;;5082324;28;20225;-72
2022/07/21 03:27:51;;;;;;;3.60;3.30;;;25.50;99.90;;;;;;5074474;28;20617;-73
2022/07/21 03:30:18;;;;;;;3.30;3.10;;;25.30;99.90;;;;;;5078841;28;20228;-72
2022/07/21 03:32:46;;;;;;;3.70;3.40;;;25.20;99.90;;;;;;5081154;28;20224;-72
2022/07/21 03:35:14;;;;;;;2.95;2.75;;;25.10;99.90;;;;;;5081814;28;20559;-72
2022/07/21 03:37:44;;;;;;;3.08;2.88;;;25.00;99.90;;;;;;5080144;28;20213;-72
2022/07/21 03:40:13;;;;;;;3.35;3.05;;;25.00;99.90;;;;;;5072980;28;20211;-72
2022/07/21 03:42:40;;;;;;;3.63;3.33;;;24.90;99.90;;;;;;5083905;28;20294;-72
2022/07/21 03:45:09;;;;;;;3.03;2.83;;;24.80;99.90;;;;;;5076895;28;20228;-72
2022/07/21 03:47:36;;;;;;;3.17;2.80;;;24.80;99.90;;;;;;5073590;28;20610;-71
2022/07/21 03:50:04;;;;;;;3.00;2.80;;;24.80;99.90;;;;;;5077886;28;20194;-72
2022/07/21 03:52:31;;;;;;;3.55;3.28;;;24.80;99.90;;;;;;5072362;28;20213;-71
2022/07/21 03:55:08;;;;;;;3.33;3.08;;;24.80;99.90;;;;;;5079856;28;20320;-71
2022/07/21 03:57:37;;;;;;;3.13;2.83;;;24.80;99.90;;;;;;5076932;28;20237;-73
2022/07/21 04:00:08;;;;;;;3.30;3.10;;;24.70;99.90;;;;;;5080181;28;20956;-71
2022/07/21 04:02:35;;;;;;;3.00;2.80;;;24.70;99.90;;;;;;5077311;28;20217;-71
2022/07/21 04:05:04;;;;;;;3.13;2.90;;;24.70;99.90;;;;;;5076822;28;20216;-71
2022/07/21 04:07:31;;;;;;;3.20;2.90;;;24.70;99.90;;;;;;5078407;28;20222;-71
2022/07/21 04:09:58;;;;;;;3.33;3.03;;;24.70;99.90;;;;;;5076926;28;20221;-71
2022/07/21 04:12:28;;;;;;;3.40;3.10;;;24.70;99.90;;;;;;5078913;28;20270;-71
2022/07/21 04:14:55;;;;;;;3.78;3.47;;;24.70;99.90;;;;;;5080403;28;20186;-70
2022/07/21 04:17:23;;;;;;;4.07;3.78;;;24.80;99.90;;;;;;5078967;28;20222;-73
2022/07/21 04:19:50;;;;;;;3.95;3.65;;;24.80;99.90;;;;;;5082564;28;20217;-72
2022/07/21 04:22:17;;;;;;;3.72;3.42;;;24.90;99.90;;;;;;5081921;28;20225;-72
2022/07/21 04:24:44;;;;;;;3.58;3.28;;;25.00;99.90;;;;;;5073304;28;20271;-72
2022/07/21 04:27:11;;;;;;;3.63;3.33;;;25.10;99.90;;;;;;5081120;28;20229;-71
2022/07/21 04:29:40;;;;;;;3.60;3.30;;;25.20;99.90;;;;;;5079687;28;20224;-72
2022/07/21 04:32:07;;;;;;;4.25;3.95;;;25.30;99.90;;;;;;5079906;28;20221;-72
2022/07/21 04:34:34;;;;;;;4.43;4.00;;;25.40;99.90;;;;;;5088596;28;20201;-72
2022/07/21 04:37:01;;;;;;;4.05;3.75;;;25.50;99.90;;;;;;5081979;28;20205;-71
2022/07/21 04:39:28;;;;;;;4.13;3.50;;;25.60;99.90;;;;;;5080102;28;20288;-71
2022/07/21 04:41:55;;;;;;;4.25;3.90;;;25.70;99.90;;;;;;5080997;28;20354;-71
2022/07/21 04:44:23;;;;;;;3.92;3.55;;;25.70;99.90;;;;;;5081958;28;20202;-72
2022/07/21 04:46:51;;;;;;;3.83;3.53;;;25.80;99.90;;;;;;5077452;28;20191;-72
2022/07/21 04:49:18;;;;;;;4.05;3.75;;;25.80;99.90;;;;;;5075028;28;20224;-71
2022/07/21 04:51:45;;;;;;;4.20;3.90;;;25.90;99.90;;;;;;5078040;28;20194;-73
2022/07/21 04:54:13;;;;;;;4.03;3.72;;;26.00;99.90;;;;;;5085055;28;20205;-72
2022/07/21 04:56:41;;;;;;;3.85;3.55;;;26.20;99.90;;;;;;5086678;28;20205;-73
2022/07/21 04:59:08;;;;;;;4.22;3.90;;;26.30;99.90;;;;;;5080325;28;20221;-72
2022/07/21 05:01:36;;;;;;;4.50;3.30;;;26.30;99.90;;;;;;5089254;28;20197;-73
2022/07/21 05:04:05;;;;;;;4.22;3.92;;;26.30;99.90;;;;;;5112337;27;20216;-73
2022/07/21 05:06:33;;;;;;;5.55;4.03;;;26.40;99.90;;;;;;5112961;27;20220;-73
2022/07/21 05:09:00;;;;;;;3.83;3.53;;;26.50;99.90;;;;;;5105609;27;20223;-73
2022/07/21 05:11:27;;;;;;;3.85;3.42;;;26.50;99.90;;;;;;5109264;27;20204;-74
2022/07/21 05:13:55;;;;;;;4.50;4.00;;;26.60;99.90;;;;;;5112299;27;20221;-73
2022/07/21 05:16:22;;;;;;;4.22;3.83;;;26.60;99.90;;;;;;5107029;27;20248;-73
2022/07/21 05:18:49;;;;;;;4.28;3.88;;;26.70;99.90;;;;;;5108884;27;20567;-73
2022/07/21 05:21:18;;;;;;;4.32;3.92;;;26.80;99.90;;;;;;5117088;27;20203;-73
2022/07/21 05:23:46;;;;;;;4.47;4.07;;;26.80;99.90;;;;;;5105264;27;20212;-73
2022/07/21 05:26:13;;;;;;;4.13;3.63;;;26.70;99.90;;;;;;5113659;27;20296;-73
2022/07/21 05:28:41;;;;;;;5.93;4.30;;;26.60;99.90;;;;;;5109168;27;20256;-73
2022/07/21 05:31:09;;;;;;;5.25;4.57;;;26.60;99.90;;;;;;5109226;27;20203;-73
2022/07/21 05:33:36;;;;;;;4.50;4.20;;;26.60;99.90;;;;;;5111783;27;20216;-74
2022/07/21 05:36:04;;;;;;;6.32;4.45;;;26.70;99.90;;;;;;5104990;28;20269;-74
2022/07/21 05:38:33;;;;;;;5.88;5.00;;;26.80;99.90;;;;;;5112774;27;20224;-73
2022/07/21 05:41:02;;;;;;;4.70;4.30;;;26.90;99.90;;;;;;5107759;27;20194;-74
2022/07/21 05:43:30;;;;;;;4.57;4.18;;;26.90;99.90;;;;;;5107693;27;20220;-73
2022/07/21 05:45:58;;;;;;;5.18;4.50;;;26.80;99.90;;;;;;5104508;27;20763;-73
2022/07/21 05:48:25;;;;;;;4.45;4.05;;;26.80;99.90;;;;;;5105377;27;20220;-74
2022/07/21 05:50:52;;;;;;;5.00;4.60;;;26.80;99.90;;;;;;5105873;27;20197;-72
2022/07/21 05:53:19;;;;;;;4.80;4.30;;;26.90;99.90;;;;;;5108527;27;20212;-72
2022/07/21 05:55:48;;;;;;;4.78;4.38;;;26.90;99.90;;;;;;5114996;27;20193;-72
2022/07/21 05:58:15;;;;;;;4.63;4.32;;;27.00;99.90;;;;;;5087364;27;20230;-73
2022/07/21 06:00:42;;;;;;;5.15;4.68;;;27.20;99.90;;;;;;5083427;28;20623;-73
2022/07/21 06:03:10;;;;;;;5.03;4.65;;;27.30;99.90;;;;;;5079446;28;20722;-73
2022/07/21 06:05:37;;;;;;;5.50;4.82;;;27.20;99.90;;;;;;5082952;28;20249;-72
2022/07/21 06:08:04;;;;;;;5.45;4.80;;;27.10;99.90;;;;;;5093634;28;20225;-72
2022/07/21 06:10:32;;;;;;;5.90;5.32;;;27.20;99.90;;;;;;5102317;28;20243;-71
2022/07/21 06:13:01;;;;;;;5.30;4.80;;;27.20;99.90;;;;;;5082845;28;22054;-71
2022/07/21 06:15:28;;;;;;;6.07;4.82;;;27.20;99.90;;;;;;5073930;28;20800;-72
2022/07/21 06:17:55;;;;;;;6.38;5.00;;;27.20;99.90;;;;;;5082399;28;20221;-71
2022/07/21 06:20:23;;;;;;;5.90;5.28;;;27.10;99.90;;;;;;5079528;28;20198;-70
2022/07/21 06:22:50;;;;;;;5.80;5.30;;;27.10;99.90;;;;;;5084781;28;20594;-72
2022/07/21 06:25:17;;;;;;;5.75;5.22;;;27.00;99.90;;;;;;5076058;28;20226;-70
2022/07/21 06:27:44;;;;;;;9.73;5.85;;;27.00;99.90;;;;;;5080523;28;20217;-71
2022/07/21 06:30:13;;;;;;;6.35;5.75;;;27.00;99.90;;;;;;5073534;28;20212;-71
2022/07/21 06:32:41;;;;;;;6.05;5.55;;;27.00;99.90;;;;;;5080156;28;20228;-71
2022/07/21 06:35:09;;;;;;;6.25;5.65;;;27.00;99.90;;;;;;5079178;28;20209;-71
2022/07/21 06:37:36;;;;;;;5.78;5.28;;;27.10;99.90;;;;;;5080458;28;20221;-72
2022/07/21 06:40:03;;;;;;;6.00;5.45;;;27.10;99.90;;;;;;5075635;28;20271;-72
2022/07/21 06:42:30;;;;;;;5.90;5.40;;;27.20;99.90;;;;;;5079305;28;20241;-71
2022/07/21 06:44:57;;;;;;;8.40;5.68;;;27.30;99.90;;;;;;5073748;28;20213;-71
2022/07/21 06:47:26;;;;;;;6.65;5.68;;;27.40;99.90;;;;;;5075581;28;20222;-73
2022/07/21 06:49:53;;;;;;;6.40;5.15;;;27.50;99.90;;;;;;5083493;28;20221;-75
2022/07/21 06:52:20;;;;;;;5.82;5.32;;;27.60;99.90;;;;;;5072996;28;20221;-72
2022/07/21 06:54:47;;;;;;;5.45;5.05;;;27.70;99.90;;;;;;5074339;28;20200;-74
2022/07/21 06:57:14;;;;;;;6.00;5.45;;;27.80;99.90;;;;;;5072586;28;20634;-73
2022/07/21 06:59:41;;;;;;;5.38;4.97;;;28.00;99.90;;;;;;5079254;28;20224;-72
2022/07/21 07:02:08;;;;;;;5.65;5.20;;;28.10;99.90;;;;;;5074677;28;21061;-73
2022/07/21 07:04:37;;;;;;;6.40;5.75;;;28.30;99.90;;;;;;5072728;28;20190;-72
2022/07/21 07:07:04;;;;;;;6.57;5.75;;;28.30;99.90;;;;;;5081536;28;20237;-72
2022/07/21 07:09:31;;;;;;;5.97;5.38;;;28.30;99.90;;;;;;5073193;28;20217;-75
2022/07/21 07:12:03;;;;;;;5.63;4.95;;;28.40;99.90;;;;;;5079787;28;20198;-73
2022/07/21 07:14:30;;;;;;;5.97;5.32;;;28.50;99.90;;;;;;5077321;28;20205;-73
2022/07/21 07:16:57;;;;;;;6.50;5.90;;;28.60;99.90;;;;;;5076618;28;20259;-73
2022/07/21 07:19:24;;;;;;;5.75;5.25;;;28.60;99.90;;;;;;5078385;28;20221;-72
2022/07/21 07:21:53;;;;;;;8.85;5.47;;;28.60;99.90;;;;;;5081653;28;20757;-73
2022/07/21 07:24:20;;;;;;;6.25;5.68;;;28.70;99.90;;;;;;5084704;28;20665;-72
2022/07/21 07:26:47;;;;;;;6.35;5.55;;;28.80;99.90;;;;;;5081239;28;20220;-72
2022/07/21 07:29:15;;;;;;;6.28;5.68;;;29.00;99.90;;;;;;5077213;28;20218;-74
2022/07/21 07:31:42;;;;;;;5.90;5.40;;;29.10;99.90;;;;;;5079632;28;20194;-73
2022/07/21 07:34:10;;;;;;;5.90;5.40;;;29.10;99.90;;;;;;5086221;28;20640;-73
2022/07/21 07:36:37;;;;;;;5.60;5.20;;;29.20;99.90;;;;;;5089144;28;20289;-73
2022/07/21 07:39:05;;;;;;;6.20;5.70;;;29.20;99.90;;;;;;5105102;27;20230;-73
2022/07/21 07:41:32;;;;;;;7.90;5.72;;;29.20;99.90;;;;;;5107222;27;20193;-73
2022/07/21 07:44:00;;;;;;;6.53;5.68;;;29.30;99.90;;;;;;5093534;28;20221;-73
2022/07/21 07:46:28;;;;;;;5.80;5.20;;;29.20;99.90;;;;;;5093759;28;20252;-73
2022/07/21 07:48:55;;;;;;;8.27;5.72;;;29.30;99.90;;;;;;5091591;28;20229;-73
2022/07/21 07:51:22;;;;;;;7.00;5.57;;;29.50;99.90;;;;;;5101210;28;20574;-73
2022/07/21 07:53:49;;;;;;;7.05;5.80;;;29.50;99.90;;;;;;5101864;27;20629;-73
2022/07/21 07:56:18;;;;;;;6.18;5.15;;;29.60;99.90;;;;;;5098964;27;20963;-72
2022/07/21 07:58:45;;;;;;;6.40;5.80;;;29.80;99.90;;;;;;5095297;27;20229;-75
2022/07/21 08:01:12;;;;;;;7.25;6.00;;;29.90;99.90;;;;;;5095720;28;20201;-75
2022/07/21 08:03:39;;;;;;;9.98;6.38;;;29.90;99.90;;;;;;5094425;28;20690;-73
2022/07/21 08:06:07;;;;;;;5.93;5.43;;;29.90;99.90;;;;;;5096445;28;20239;-76
2022/07/21 08:08:34;;;;;;;5.45;5.00;;;30.00;99.90;;;;;;5096753;27;20783;-75
2022/07/21 08:11:01;;;;;;;7.28;5.88;;;30.10;99.90;;;;;;5093770;28;20527;-74
2022/07/21 08:13:30;;;;;;;5.75;5.15;;;30.20;99.90;;;;;;5097882;28;20221;-74
2022/07/21 08:15:57;;;;;;;6.00;5.50;;;30.20;99.90;;;;;;5092196;28;20193;-75
2022/07/21 08:18:24;;;;;;;5.68;5.10;;;30.40;99.90;;;;;;5096640;28;20240;-75
2022/07/21 08:20:51;;;;;;;6.55;6.00;;;30.50;99.90;;;;;;5098494;28;20280;-75
2022/07/21 08:23:18;;;;;;;6.00;5.50;;;30.70;99.90;;;;;;5093780;28;20228;-75
2022/07/21 08:25:46;;;;;;;6.57;6.07;;;30.70;99.90;;;;;;5094866;28;20295;-75
2022/07/21 08:28:13;;;;;;;8.65;6.00;;;30.80;99.90;;;;;;5089512;28;20604;-75
2022/07/21 08:30:42;;;;;;;7.43;5.80;;;30.90;99.90;;;;;;5094756;28;20192;-75
2022/07/21 08:33:09;;;;;;;7.80;5.70;;;30.90;99.90;;;;;;5089892;27;20221;-76
2022/07/21 08:35:37;;;;;;;6.28;5.68;;;30.80;99.90;;;;;;5094313;28;20545;-75
2022/07/21 08:38:05;;;;;;;7.03;6.38;;;30.90;99.90;;;;;;5098900;28;20228;-75
2022/07/21 08:40:34;;;;;;;6.53;5.93;;;31.00;99.90;;;;;;5087607;28;20204;-76
2022/07/21 08:43:02;;;;;;;5.97;5.50;;;31.00;99.90;;;;;;5097326;28;20599;-75
2022/07/21 08:45:30;;;;;;;6.47;5.88;;;31.00;99.80;;;;;;5094478;28;20224;-76
2022/07/21 08:48:00;;;;;;;6.40;5.80;;;31.00;99.90;;;;;;5097674;28;20220;-74
2022/07/21 08:50:29;;;;;;;6.53;5.93;;;31.00;99.90;;;;;;5093242;28;20623;-73
2022/07/21 08:52:57;;;;;;;6.28;5.32;;;31.10;99.90;;;;;;5092474;27;20216;-73
2022/07/21 08:55:24;;;;;;;6.60;6.00;;;31.00;99.90;;;;;;5091862;28;20205;-73
2022/07/21 08:57:52;;;;;;;7.20;5.85;;;31.20;99.90;;;;;;5093484;27;20234;-74
2022/07/21 09:00:19;;;;;;;6.25;5.70;;;31.40;99.90;;;;;;5091650;28;20200;-73
2022/07/21 09:02:46;;;;;;;6.30;5.70;;;31.50;99.60;;;;;;5092042;28;20216;-73
2022/07/21 09:05:14;;;;;;;6.07;5.55;;;31.80;99.40;;;;;;5092911;28;20563;-71
2022/07/21 09:07:49;;;;;;;6.75;5.60;;;31.70;99.00;;;;;;5093294;28;20273;-71
2022/07/21 09:10:22;;;;;;;6.88;6.15;;;31.70;98.80;;;;;;5090669;28;20198;-73
2022/07/21 09:12:51;;;;;;;7.13;5.47;;;31.80;98.80;;;;;;5094946;28;20627;-71
2022/07/21 09:15:21;;;;;;;5.90;5.40;;;31.70;98.60;;;;;;5093549;28;20201;-71
2022/07/21 09:18:08;;;;;;;6.43;5.82;;;31.80;98.50;;;;;;5093529;28;20650;-74
2022/07/21 09:20:39;;;;;;;6.35;5.75;;;32.00;98.10;;;;;;5093269;28;20206;-72
2022/07/21 09:23:07;;;;;;;6.10;5.60;;;32.10;98.40;;;;;;5097072;28;20212;-72
2022/07/21 09:25:37;;;;;;;5.60;5.10;;;32.10;98.10;;;;;;5094605;28;20286;-74
2022/07/21 09:28:15;;;;;;;6.78;5.68;;;32.20;97.90;;;;;;5093760;28;20224;-72
2022/07/21 09:30:53;;;;;;;5.60;5.10;;;32.20;97.60;;;;;;5094319;28;20883;-72
2022/07/21 09:33:22;;;;;;;5.07;4.63;;;32.30;97.50;;;;;;5098845;27;20295;-72
2022/07/21 09:36:03;;;;;;;5.65;5.15;;;32.60;97.00;;;;;;5095996;27;20202;-72
2022/07/21 09:38:32;;;;;;;5.68;5.28;;;32.70;95.80;;;;;;5097580;27;20239;-72
2022/07/21 09:41:11;;;;;;;7.03;4.97;;;32.80;96.40;;;;;;5095447;27;20257;-73
2022/07/21 09:43:44;;;;;;;6.30;4.82;;;33.00;95.70;;;;;;5099919;27;20236;-72
2022/07/21 09:46:15;;;;;;;5.68;5.07;;;33.20;95.90;;;;;;5102607;27;20224;-72
2022/07/21 09:48:44;;;;;;;5.53;5.03;;;33.20;96.00;;;;;;5090179;27;20232;-72
2022/07/21 09:51:27;;;;;;;5.63;5.10;;;33.20;95.30;;;;;;5091333;27;20200;-71
2022/07/21 09:53:57;;;;;;;4.55;4.15;;;33.20;95.00;;;;;;5098768;27;20225;-73
2022/07/21 09:56:26;;;;;;;4.97;4.57;;;33.30;94.40;;;;;;5103144;27;20220;-73
2022/07/21 09:58:56;;;;;;;5.97;4.95;;;33.30;94.10;;;;;;5092893;28;20708;-72
2022/07/21 10:01:24;;;;;;;4.95;4.55;;;33.20;94.20;;;;;;5098063;27;20197;-72
2022/07/21 10:03:52;;;;;;;4.95;4.55;;;33.30;94.50;;;;;;5102171;27;20212;-73
2022/07/21 10:06:24;;;;;;;5.07;4.57;;;33.40;94.50;;;;;;5095321;27;20214;-72
2022/07/21 10:08:53;;;;;;;5.28;4.78;;;33.30;94.50;;;;;;5095827;27;20217;-72
2022/07/21 10:11:20;;;;;;;5.25;4.75;;;33.30;94.80;;;;;;5106053;27;20770;-71
2022/07/21 10:13:47;;;;;;;4.72;4.38;;;33.50;94.00;;;;;;5098796;27;20636;-73
2022/07/21 10:16:14;;;;;;;4.82;4.15;;;33.50;94.20;;;;;;5098477;27;20193;-80
2022/07/21 10:18:53;;;;;;;6.28;4.50;;;33.60;94.00;;;;;;5094108;28;20241;-73
2022/07/21 10:21:33;;;;;;;5.38;4.68;;;33.60;93.00;;;;;;5092137;27;20952;-73
2022/07/21 10:24:00;;;;;;;5.35;4.60;;;33.50;93.20;;;;;;5095177;28;20861;-74
2022/07/21 10:26:27;;;;;;;4.90;4.47;;;33.90;93.60;;;;;;5099687;28;20221;-74
2022/07/21 10:28:54;;;;;;;5.18;4.75;;;33.80;93.40;;;;;;5096556;28;20224;-74
2022/07/21 10:31:23;;;;;;;5.00;4.50;;;33.70;93.70;;;;;;5090125;28;20201;-74
2022/07/21 10:33:58;;;;;;;4.43;4.07;;;33.70;93.80;;;;;;5074298;28;20312;-74
2022/07/21 10:36:46;;;;;;;5.47;4.60;;;33.80;93.90;;;;;;5071835;28;20198;-74
2022/07/21 10:39:25;;;;;;;5.97;4.95;;;33.90;94.10;;;;;;5075322;28;20304;-73
2022/07/21 10:41:55;;;;;;;5.82;4.32;;;34.10;94.30;;;;;;5074916;28;20255;-73
2022/07/21 10:44:45;;;;;;;4.57;3.95;;;34.00;94.30;;;;;;5092987;28;20201;-72
2022/07/21 10:47:15;;;;;;;5.85;5.28;;;34.30;94.50;;;;;;5091329;28;20224;-73
2022/07/21 10:49:51;;;;;;;7.00;5.00;;;34.40;94.00;;;;;;5096228;28;20279;-74
2022/07/21 10:52:51;;;;;;;6.45;5.60;;;34.50;93.30;;;;;;5088319;28;20245;-74
2022/07/21 10:55:27;;;;;;;5.15;4.75;;;34.40;93.60;;;;;;5074065;28;20870;-73
2022/07/21 10:58:16;;;;;;;5.07;4.50;;;34.50;93.10;;;;;;5067607;28;20220;-72
2022/07/21 11:00:49;;;;;;;7.93;4.68;;;34.90;93.10;;;;;;5068185;28;20283;-72
2022/07/21 11:03:28;;;;;;;7.22;4.30;;;35.00;92.70;;;;;;5075008;28;20720;-73
2022/07/21 11:06:22;;;;;;;5.35;4.30;;;35.20;91.30;;;;;;5070695;28;20194;-73
2022/07/21 11:08:50;;;;;;;4.70;4.30;;;35.10;90.80;;;;;;5074389;28;20226;-73
2022/07/21 11:11:21;;;;;;;4.25;3.85;;;35.20;91.60;;;;;;5071498;28;20267;-73
2022/07/21 11:14:06;;;;;;;4.07;3.67;;;35.10;91.20;;;;;;5069284;28;20312;-74
2022/07/21 11:17:09;;;;;;;5.45;4.40;;;35.40;91.20;;;;;;5068582;28;20194;-72
2022/07/21 11:19:40;;;;;;;6.95;4.68;;;35.50;90.70;;;;;;5072701;28;20278;-73
2022/07/21 11:22:11;;;;;;;5.68;4.40;;;35.70;89.90;;;;;;5067240;28;20222;-71
2022/07/21 11:24:40;;;;;;;5.35;4.20;;;35.60;87.80;;;;;;5071858;28;20198;-72
2022/07/21 11:27:11;;;;;;;4.75;4.35;;;35.60;87.50;;;;;;5068125;28;20699;-70
2022/07/21 11:29:42;;;;;;;4.80;4.20;;;35.70;86.40;;;;;;5064999;28;20274;-71
2022/07/21 11:32:11;;;;;;;4.88;3.92;;;35.80;85.90;;;;;;5067579;28;20217;-72
2022/07/21 11:34:47;;;;;;;5.03;4.35;;;35.80;86.00;;;;;;5074804;28;20254;-72
2022/07/21 11:37:17;;;;;;;5.00;4.55;;;35.90;85.00;;;;;;5073086;28;20233;-72
2022/07/21 11:39:45;;;;;;;6.82;4.60;;;35.90;83.70;;;;;;5079275;28;20226;-72
2022/07/21 11:42:16;;;;;;;7.28;4.43;;;35.90;84.50;;;;;;5079542;28;20224;-72
2022/07/21 11:44:44;;;;;;;5.95;4.57;;;35.90;83.80;;;;;;5073121;28;20193;-72
2022/07/21 11:47:14;;;;;;;4.90;4.35;;;35.90;83.70;;;;;;5072256;28;20312;-72
2022/07/21 11:49:43;;;;;;;4.90;4.40;;;35.90;83.90;;;;;;5073146;28;20218;-71
2022/07/21 11:52:12;;;;;;;4.60;4.20;;;36.00;83.40;;;;;;5078077;28;20222;-72
2022/07/21 11:54:45;;;;;;;5.57;5.07;;;36.10;83.60;;;;;;5078473;28;20189;-72
2022/07/21 11:57:16;;;;;;;4.70;4.30;;;36.10;82.50;;;;;;5076222;28;20270;-71
2022/07/21 11:59:44;;;;;;;5.65;4.70;;;36.00;83.00;;;;;;5065829;28;21050;-72
2022/07/21 12:02:14;;;;;;;8.02;5.10;;;36.00;82.30;;;;;;5075212;28;20274;-72
2022/07/21 12:04:44;;;;;;;7.32;4.63;;;35.90;82.40;;;;;;5072096;28;20737;-72
2022/07/21 12:07:16;;;;;;;5.35;4.45;;;35.90;82.40;;;;;;5077760;28;20788;-72
2022/07/21 12:09:45;;;;;;;6.85;4.07;;;36.00;82.60;;;;;;5072130;28;20371;-72
2022/07/21 12:12:15;;;;;;;6.00;4.30;;;36.10;82.50;;;;;;5075031;28;20271;-73
2022/07/21 12:14:49;;;;;;;6.13;4.32;;;36.30;82.70;;;;;;5069484;28;20210;-72
2022/07/21 12:17:32;;;;;;;6.72;4.68;;;36.40;82.40;;;;;;5076894;28;20221;-71
2022/07/21 12:20:00;;;;;;;6.60;4.35;;;36.20;80.20;;;;;;5077049;28;20238;-70
2022/07/21 12:22:39;;;;;;;5.80;5.28;;;36.20;81.80;;;;;;5072271;28;20309;-71
2022/07/21 12:25:08;;;;;;;6.00;4.70;;;36.10;80.70;;;;;;5072331;28;20266;-72
2022/07/21 12:27:39;;;;;;;5.28;4.55;;;36.20;81.20;;;;;;5067253;28;20233;-71
2022/07/21 12:30:09;;;;;;;5.00;4.50;;;36.30;81.20;;;;;;5070640;28;20222;-72
2022/07/21 12:32:46;;;;;;;5.78;4.47;;;36.40;80.40;;;;;;5070585;28;20237;-71
2022/07/21 12:35:26;;;;;;;6.53;5.10;;;36.40;79.90;;;;;;5075464;28;20193;-72
2022/07/21 12:38:15;;;;;;;5.55;4.93;;;36.10;79.40;;;;;;5077571;28;20263;-71
2022/07/21 12:40:45;;;;;;;5.07;4.68;;;36.20;80.00;;;;;;5071088;28;20201;-70
2022/07/21 12:43:16;;;;;;;5.28;4.78;;;36.20;79.60;;;;;;5089642;27;20809;-70
2022/07/21 12:45:50;;;;;;;4.53;4.13;;;36.10;78.40;;;;;;5093672;27;20200;-70
2022/07/21 12:48:20;;;;;;;7.25;4.55;;;36.20;78.80;;;;;;5103465;27;20721;-71
2022/07/21 12:51:09;;;;;;;5.38;4.70;;;36.20;78.90;;;;;;5104743;27;20197;-70
2022/07/21 12:53:39;;;;;;;7.40;4.65;;;36.40;77.10;;;;;;5101565;27;20217;-69
2022/07/21 12:56:07;;;;;;;6.85;4.68;;;36.60;78.90;;;;;;5111774;27;20226;-68
2022/07/21 12:58:37;;;;;;;7.38;4.65;;;36.60;78.20;;;;;;5094190;27;21261;-70
2022/07/21 13:01:06;;;;;;;6.68;4.28;;;36.60;78.80;;;;;;5096969;27;20209;-70